Main page
METAR-TAF:

METAR-TAF

Airports :

Ankara Esenboğa, Turkey

Esenboğa International Airport

latitude: 40-07N, longitude: 032-59E, elevation: 953 m

Current weather observation

The report was made 25 minutes ago, at 01:50 UTC
Wind 8 kt from the North/Northeast
Temperature 19°C
Humidity 73%
Pressure 1015 hPa
Visibility 10 km or more
no clouds below 1500 m and no cumulonimbus

METAR: LTAC 200150Z 02008KT CAVOK 19/14 Q1015 NOSIG RMK RWY21L 36007KT RWY03L 01008KT RWY21R 02008KT

Time: 05:15 (02:15 UTC)

Forecast

The report was made 3 hours and 35 minutes ago, at 22:40 UTC
Forecast valid from 20 at 00 UTC to 20 at 24 UTC
Wind 2 kt from variable directions
Visibility 10 km or more
no clouds below 1500 m and no cumulonimbus
Becoming
from 20 at 10 UTC to 20 at 12 UTC
Scattered clouds at a height of 4000 ft

TAF: LTAC 192240Z 2000/2024 VRB02KT CAVOK BECMG 2010/2012 SCT040

Weather observations and forecasts of more than 4000 airports (METAR and TAF reports).

The available stations are represented by yellow and red dots on the map.

Hover mouse over dot to see the name of the station.

Then click to see weather observations and forecasts.

To change the map : click on the green buttons with a black cross to zoom in, on the green button with a dash to zoom out, or on the green arrows for adjacent maps.


METAR-TAF: